Time;durP1;ratioP1;P1;durP2;ratioP2;P2;SDS_P1;SDS_P2;PMS_P1;PMS_P2;Temp;Humidity;BMP_temperature;BMP_pressure;BME280_temperature;BME280_humidity;BME280_pressure;Samples;Min_cycle;Max_cycle;Signal;HPM_P1;HPM_P2
2023/06/29 00:02:25;;;;;;;2.50;2.30;;;;;;;14.32;100.00;96491.88;5012611;28;102950;-58
2023/06/29 00:04:53;;;;;;;2.60;2.40;;;;;;;14.35;100.00;96494.00;5010549;28;105269;-58
2023/06/29 00:07:20;;;;;;;2.53;2.33;;;;;;;14.43;100.00;96493.44;5016109;28;101952;-58
2023/06/29 00:09:47;;;;;;;4.07;2.87;;;;;;;14.39;100.00;96488.91;5010712;28;105174;-58
2023/06/29 00:12:16;;;;;;;2.37;2.17;;;;;;;14.23;100.00;96495.38;5012635;28;101740;-58
2023/06/29 00:14:43;;;;;;;3.73;2.47;;;;;;;14.04;100.00;96494.28;5011053;28;103809;-58
2023/06/29 00:17:14;;;;;;;2.57;2.37;;;;;;;14.12;100.00;96491.84;5010521;28;105147;-58
2023/06/29 00:19:42;;;;;;;2.60;2.40;;;;;;;14.19;100.00;96491.59;5010946;28;102163;-58
2023/06/29 00:22:10;;;;;;;3.90;2.47;;;;;;;13.99;100.00;96494.28;5011228;28;104482;-58
2023/06/29 00:24:42;;;;;;;2.90;2.70;;;;;;;14.01;100.00;96498.28;5010463;28;103831;-58
2023/06/29 00:27:09;;;;;;;2.40;2.27;;;;;;;14.02;100.00;96483.06;5011002;28;101803;-58
2023/06/29 00:29:37;;;;;;;2.53;2.30;;;;;;;13.89;100.00;96487.06;5013873;28;103713;-58
2023/06/29 00:32:05;;;;;;;2.67;2.47;;;;;;;13.84;100.00;96483.63;5011053;28;102056;-58
2023/06/29 00:34:32;;;;;;;3.50;2.67;;;;;;;13.96;100.00;96481.47;5010730;28;105699;-57
2023/06/29 00:37:00;;;;;;;2.83;2.63;;;;;;;13.93;100.00;96484.66;5010210;28;103929;-58
2023/06/29 00:39:27;;;;;;;2.80;2.60;;;;;;;13.92;100.00;96481.19;5010703;28;101933;-58
2023/06/29 00:41:54;;;;;;;2.83;2.50;;;;;;;13.78;100.00;96482.00;5010864;28;105186;-58
2023/06/29 00:44:21;;;;;;;3.10;2.80;;;;;;;13.75;100.00;96479.88;5010218;28;105725;-58
2023/06/29 00:46:52;;;;;;;2.83;2.30;;;;;;;13.68;100.00;96482.78;5010632;28;102055;-58
2023/06/29 00:49:20;;;;;;;2.70;2.50;;;;;;;13.67;100.00;96480.38;5010724;28;105542;-58
2023/06/29 00:51:50;;;;;;;3.10;2.60;;;;;;;13.69;100.00;96483.59;5013406;28;105023;-58
2023/06/29 00:54:17;;;;;;;3.00;2.70;;;;;;;13.70;100.00;96482.53;5010650;28;105186;-58
2023/06/29 00:56:45;;;;;;;3.37;3.10;;;;;;;13.65;100.00;96474.50;5009898;28;105124;-58
2023/06/29 00:59:14;;;;;;;3.10;2.80;;;;;;;13.57;100.00;96477.75;5010397;28;103470;-58
2023/06/29 01:01:42;;;;;;;2.93;2.73;;;;;;;13.59;100.00;96478.25;5010475;28;104061;-58
2023/06/29 01:04:17;;;;;;;3.77;2.90;;;;;;;13.64;100.00;96471.06;5009455;28;105154;-58
2023/06/29 01:06:51;;;;;;;2.73;2.53;;;;;;;13.51;100.00;96476.91;5010613;28;101839;-58
2023/06/29 01:09:19;;;;;;;3.50;3.00;;;;;;;13.55;100.00;96482.53;5010365;28;104611;-58
2023/06/29 01:11:46;;;;;;;3.73;2.73;;;;;;;13.50;100.00;96472.66;5009607;28;105860;-58
2023/06/29 01:14:15;;;;;;;2.63;2.43;;;;;;;13.47;100.00;96470.50;5013735;28;101780;-58
2023/06/29 01:16:44;;;;;;;3.17;2.83;;;;;;;13.40;100.00;96475.31;5009755;28;105045;-58
2023/06/29 01:19:20;;;;;;;3.33;3.03;;;;;;;13.32;100.00;96465.16;5009736;28;101918;-58
2023/06/29 01:21:54;;;;;;;3.53;2.97;;;;;;;13.40;100.00;96466.50;5010227;28;104852;-58
2023/06/29 01:24:25;;;;;;;4.23;2.87;;;;;;;13.37;100.00;96459.81;5009769;28;105134;-58
2023/06/29 01:26:54;;;;;;;2.73;2.53;;;;;;;13.30;100.00;96461.16;5009964;28;102145;-58
2023/06/29 01:29:24;;;;;;;2.87;2.63;;;;;;;13.30;100.00;96461.16;5010019;28;105168;-57
2023/06/29 01:31:53;;;;;;;3.57;2.70;;;;;;;13.18;100.00;96463.25;5009206;28;106392;-58
2023/06/29 01:34:23;;;;;;;3.03;2.57;;;;;;;13.24;100.00;96463.00;5013556;28;102201;-58
2023/06/29 01:36:52;;;;;;;2.67;2.47;;;;;;;13.28;100.00;96461.41;5009370;28;105496;-58
2023/06/29 01:39:24;;;;;;;3.93;2.87;;;;;;;13.29;100.00;96451.50;5009907;28;102070;-58
2023/06/29 01:41:55;;;;;;;3.30;2.90;;;;;;;13.26;100.00;96452.06;5009772;28;105453;-58
2023/06/29 01:44:22;;;;;;;3.13;2.90;;;;;;;13.26;100.00;96452.06;5009270;28;105084;-58
2023/06/29 01:46:49;;;;;;;2.87;2.67;;;;;;;13.17;100.00;96453.63;5009708;28;102075;-58
2023/06/29 01:49:16;;;;;;;2.90;2.60;;;;;;;12.98;100.00;96444.53;5011117;28;102779;-57
2023/06/29 01:51:43;;;;;;;2.63;2.43;;;;;;;13.00;100.00;96451.22;5009103;28;105280;-58
2023/06/29 01:54:10;;;;;;;3.77;3.33;;;;;;;12.98;100.00;96453.31;5009784;28;102153;-58
2023/06/29 01:56:40;;;;;;;2.90;2.70;;;;;;;13.04;100.00;96451.47;5012611;28;103727;-57
2023/06/29 01:59:10;;;;;;;3.20;2.90;;;;;;;12.96;100.00;96451.97;5010776;28;101910;-58
2023/06/29 02:01:37;;;;;;;3.10;2.80;;;;;;;12.84;100.00;96444.19;5009495;28;105213;-58
2023/06/29 02:04:05;;;;;;;3.13;2.50;;;;;;;12.86;100.00;96438.59;5009062;28;105744;-59
2023/06/29 02:06:32;;;;;;;2.67;2.43;;;;;;;12.88;100.00;96445.28;5009354;28;101957;-58
2023/06/29 02:08:59;;;;;;;3.40;3.00;;;;;;;12.85;100.00;96439.66;5009297;28;105653;-58
2023/06/29 02:11:26;;;;;;;4.67;2.90;;;;;;;12.89;100.00;96435.38;5008712;28;105364;-58
2023/06/29 02:13:53;;;;;;;2.70;2.50;;;;;;;12.70;100.00;96440.41;5008734;28;101979;-58
2023/06/29 02:16:21;;;;;;;3.40;3.10;;;;;;;12.71;100.00;96441.22;5009095;28;105129;-58
2023/06/29 02:18:48;;;;;;;3.47;2.87;;;;;;;12.70;100.00;96440.41;5011352;28;105177;-58
2023/06/29 02:21:15;;;;;;;3.23;3.00;;;;;;;12.76;100.00;96447.34;5008828;28;102897;-57
2023/06/29 02:23:42;;;;;;;3.07;2.70;;;;;;;12.79;100.00;96438.84;5008652;28;105668;-58
2023/06/29 02:26:09;;;;;;;3.53;3.07;;;;;;;12.59;100.00;96432.66;5009221;28;102060;-58
2023/06/29 02:28:36;;;;;;;3.00;2.70;;;;;;;12.63;100.00;96437.19;5009278;28;105203;-58
2023/06/29 02:31:03;;;;;;;5.70;2.97;;;;;;;12.62;100.00;96440.09;5008388;28;105584;-57
2023/06/29 02:33:32;;;;;;;2.90;2.60;;;;;;;12.64;100.00;96435.34;5009103;28;102008;-58
2023/06/29 02:35:59;;;;;;;2.97;2.70;;;;;;;12.63;100.00;96431.03;5009021;28;104062;-58
2023/06/29 02:38:26;;;;;;;3.27;2.83;;;;;;;12.63;100.00;96431.84;5009747;28;103121;-57
2023/06/29 02:40:53;;;;;;;3.20;3.00;;;;;;;12.66;100.00;96434.00;5012369;28;101989;-58
2023/06/29 02:43:20;;;;;;;4.07;3.00;;;;;;;12.64;100.00;96432.66;5008266;28;105479;-58
2023/06/29 02:45:47;;;;;;;2.90;2.70;;;;;;;12.55;100.00;96428.88;5008546;28;102034;-57
2023/06/29 02:48:14;;;;;;;3.17;2.97;;;;;;;12.41;100.00;96428.56;5008955;28;104845;-58
2023/06/29 02:50:42;;;;;;;3.37;3.17;;;;;;;12.48;100.00;96431.00;5008345;28;105679;-58
2023/06/29 02:53:11;;;;;;;3.10;2.80;;;;;;;12.26;100.00;96428.50;5008839;28;101881;-57
2023/06/29 02:55:38;;;;;;;3.70;2.80;;;;;;;12.35;100.00;96423.47;5008887;28;105178;-58
2023/06/29 02:58:05;;;;;;;3.37;2.90;;;;;;;12.39;100.00;96428.03;5008153;28;105126;-58
2023/06/29 03:00:32;;;;;;;3.67;2.87;;;;;;;12.27;100.00;96427.41;5008443;28;102050;-57
2023/06/29 03:03:01;;;;;;;3.30;3.00;;;;;;;12.29;100.00;96430.66;5011597;28;105279;-58
2023/06/29 03:05:28;;;;;;;3.03;2.80;;;;;;;12.23;100.00;96423.69;5008579;28;102023;-58
2023/06/29 03:07:57;;;;;;;4.37;3.23;;;;;;;12.26;100.00;96425.03;5008627;28;105075;-58
2023/06/29 03:10:23;;;;;;;3.70;3.10;;;;;;;12.27;100.00;96421.31;5008194;28;105383;-58
2023/06/29 03:12:50;;;;;;;3.00;2.70;;;;;;;12.14;100.00;96419.09;5010079;28;101864;-57
2023/06/29 03:15:17;;;;;;;3.23;2.93;;;;;;;12.17;100.00;96421.25;5008305;28;105783;-58
2023/06/29 03:17:45;;;;;;;3.10;2.90;;;;;;;12.22;100.00;96419.41;5007506;28;105427;-58
2023/06/29 03:20:13;;;;;;;4.37;3.30;;;;;;;12.20;100.00;96410.88;5008181;28;102123;-58
2023/06/29 03:22:40;;;;;;;4.93;3.20;;;;;;;12.13;100.00;96415.66;5008353;28;103858;-58
2023/06/29 03:25:10;;;;;;;4.83;2.97;;;;;;;12.09;100.00;96414.53;5010615;28;101934;-57
2023/06/29 03:27:37;;;;;;;3.27;2.97;;;;;;;12.11;100.00;96416.97;5008086;28;104804;-58
2023/06/29 03:30:05;;;;;;;4.30;3.07;;;;;;;12.18;100.00;96414.84;5009194;28;102505;-58
2023/06/29 03:32:32;;;;;;;3.53;2.87;;;;;;;12.19;100.00;96416.44;5009681;28;101845;-58
2023/06/29 03:34:59;;;;;;;4.63;3.40;;;;;;;12.22;100.00;96418.63;5008194;28;104846;-58
2023/06/29 03:37:25;;;;;;;3.40;3.10;;;;;;;12.18;100.00;96420.19;5007800;28;105060;-58
2023/06/29 03:39:52;;;;;;;3.07;2.87;;;;;;;12.26;100.00;96425.81;5007992;28;101983;-58
2023/06/29 03:42:20;;;;;;;3.10;2.90;;;;;;;12.30;100.00;96418.91;5007963;28;105170;-58
2023/06/29 03:44:47;;;;;;;3.50;3.20;;;;;;;12.30;100.00;96415.44;5010779;28;105428;-57
2023/06/29 03:47:14;;;;;;;3.23;2.87;;;;;;;12.31;100.00;96414.41;5008101;28;105745;-58
2023/06/29 03:49:41;;;;;;;4.73;3.03;;;;;;;12.36;100.00;96423.22;5007296;28;105229;-58
2023/06/29 03:52:08;;;;;;;3.77;3.20;;;;;;;12.39;100.00;96419.22;5007915;28;101938;-58
2023/06/29 03:54:34;;;;;;;5.10;4.07;;;;;;;12.40;100.00;96415.47;5008175;28;105347;-58
2023/06/29 03:57:03;;;;;;;3.07;2.87;;;;;;;12.41;100.00;96414.41;5007119;28;105193;-58
2023/06/29 03:59:31;;;;;;;3.37;3.07;;;;;;;12.43;100.00;96417.66;5007908;28;101942;-57
2023/06/29 04:01:58;;;;;;;3.33;3.07;;;;;;;12.45;100.00;96424.31;5007777;28;103750;-58
2023/06/29 04:04:24;;;;;;;4.30;3.60;;;;;;;12.58;100.00;96423.00;5007179;28;105251;-58
2023/06/29 04:06:51;;;;;;;5.50;3.60;;;;;;;12.73;100.00;96418.56;5011063;28;102264;-57
2023/06/29 04:09:18;;;;;;;3.73;3.43;;;;;;;12.83;100.00;96425.78;5007138;28;105062;-58
2023/06/29 04:11:45;;;;;;;3.80;3.37;;;;;;;12.85;100.00;96424.44;5007692;28;101920;-58
2023/06/29 04:14:12;;;;;;;4.30;3.40;;;;;;;13.03;100.00;96425.84;5007516;28;105020;-58
2023/06/29 04:16:40;;;;;;;5.53;3.90;;;;;;;13.02;100.00;96425.03;5007168;28;105787;-58
2023/06/29 04:19:07;;;;;;;3.80;3.40;;;;;;;13.19;100.00;96424.81;5007220;28;101865;-58
2023/06/29 04:21:35;;;;;;;4.20;3.80;;;;;;;13.27;100.00;96427.75;5007348;28;103033;-58
2023/06/29 04:24:02;;;;;;;4.33;3.80;;;;;;;13.41;100.00;96428.03;5006960;28;103724;-58
2023/06/29 04:26:29;;;;;;;3.63;3.33;;;;;;;13.54;100.00;96430.97;5007642;28;102276;-58
2023/06/29 04:29:01;;;;;;;4.20;3.80;;;;;;;13.70;100.00;96423.75;5010279;28;104830;-58
2023/06/29 04:31:29;;;;;;;3.73;3.30;;;;;;;13.81;100.00;96430.69;5007539;28;102397;-58
2023/06/29 04:33:59;;;;;;;4.27;3.80;;;;;;;13.91;100.00;96428.00;5007573;28;104142;-58
2023/06/29 04:36:26;;;;;;;4.00;3.70;;;;;;;14.00;100.00;96426.38;5006704;28;105255;-58
2023/06/29 04:38:53;;;;;;;4.53;4.13;;;;;;;14.09;100.00;96420.22;5011566;28;102403;-58
2023/06/29 04:41:30;;;;;;;3.80;3.50;;;;;;;14.23;100.00;96421.25;5012111;28;103246;-58
2023/06/29 04:43:58;;;;;;;4.07;3.60;;;;;;;14.35;100.00;96418.28;5010143;28;105478;-58
2023/06/29 04:46:25;;;;;;;4.10;3.33;;;;;;;14.59;100.00;96425.41;5010551;28;101910;-59
2023/06/29 04:48:52;;;;;;;3.50;3.20;;;;;;;14.98;100.00;96418.25;5010597;28;105422;-59
2023/06/29 04:51:20;;;;;;;4.10;3.57;;;;;;;15.28;100.00;96418.06;5013528;28;105079;-59
2023/06/29 04:53:47;;;;;;;4.60;4.00;;;;;;;15.57;100.00;96420.81;5010507;28;103748;-59
2023/06/29 04:56:14;;;;;;;4.90;3.40;;;;;;;15.77;100.00;96413.41;5009786;28;104093;-59
2023/06/29 04:58:41;;;;;;;3.97;3.53;;;;;;;15.69;100.00;96413.22;5011979;28;101904;-59
2023/06/29 05:01:08;;;;;;;3.90;3.43;;;;;;;15.83;100.00;96398.06;5010339;28;104528;-59
2023/06/29 05:03:35;;;;;;;3.70;3.40;;;;;;;15.94;100.00;96402.25;5009866;28;105139;-59
2023/06/29 05:06:02;;;;;;;3.20;2.93;;;;;;;16.17;100.00;96394.22;5010373;28;102041;-59
2023/06/29 05:08:31;;;;;;;3.70;3.40;;;;;;;16.49;100.00;96398.97;5011837;28;102469;-59
2023/06/29 05:10:58;;;;;;;4.07;3.47;;;;;;;16.05;100.00;96395.69;5009580;28;105382;-59
2023/06/29 05:13:25;;;;;;;4.70;2.80;;;;;;;16.42;100.00;96396.66;5013726;28;102077;-59
2023/06/29 05:15:52;;;;;;;3.53;3.23;;;;;;;16.30;100.00;96390.06;5010984;28;103250;-59
2023/06/29 05:18:19;;;;;;;4.10;3.07;;;;;;;16.77;100.00;96398.09;5009623;28;102044;-59
2023/06/29 05:20:46;;;;;;;3.27;3.07;;;;;;;16.76;100.00;96391.94;5009901;28;103768;-59
2023/06/29 05:23:13;;;;;;;4.33;3.53;;;;;;;16.39;100.00;96393.72;5009489;28;105844;-59
2023/06/29 05:25:42;;;;;;;3.97;3.10;;;;;;;16.74;100.00;96393.31;5009910;28;102146;-59
2023/06/29 05:28:09;;;;;;;3.30;3.00;;;;;;;17.13;100.00;96391.16;5010069;28;103813;-59
2023/06/29 05:30:35;;;;;;;3.83;3.50;;;;;;;16.56;100.00;96391.41;5009467;28;104395;-59
2023/06/29 05:33:03;;;;;;;5.53;3.10;;;;;;;16.43;100.00;96387.53;5013590;28;101923;-59
2023/06/29 05:35:31;;;;;;;3.90;3.33;;;;;;;16.91;100.00;96388.25;5009265;28;105550;-59
2023/06/29 05:37:58;;;;;;;3.50;2.70;;;;;;;17.19;100.00;96379.22;5010002;28;102409;-59
2023/06/29 05:40:25;;;;;;;2.90;2.70;;;;;;;17.27;100.00;96370.53;5009660;28;103800;-59
2023/06/29 05:42:53;;;;;;;4.10;3.30;;;;;;;17.15;100.00;96380.88;5009280;28;103158;-59
2023/06/29 05:45:20;;;;;;;3.00;2.70;;;;;;;17.46;100.00;96380.19;5009796;28;101994;-59
2023/06/29 05:47:47;;;;;;;2.67;2.43;;;;;;;17.76;100.00;96378.88;5009933;28;105239;-59
2023/06/29 05:50:16;;;;;;;5.77;3.60;;;;;;;17.53;100.00;96379.78;5009339;28;102614;-59
2023/06/29 05:52:43;;;;;;;4.07;3.20;;;;;;;17.32;100.00;96378.47;5010997;28;101805;-59
2023/06/29 05:55:11;;;;;;;4.10;3.60;;;;;;;16.78;100.00;96379.00;5013283;28;101782;-59
2023/06/29 05:57:38;;;;;;;5.17;3.40;;;;;;;16.94;100.00;96376.94;5009872;28;101981;-59
2023/06/29 06:00:09;;;;;;;5.93;3.77;;;;;;;16.82;100.00;96379.22;5010976;28;102970;-59
2023/06/29 06:02:37;;;;;;;7.40;3.60;;;;;;;17.02;100.00;96382.44;5010796;28;102415;-59
2023/06/29 06:05:05;;;;;;;5.47;3.87;;;;;;;17.07;100.00;96373.50;5010910;28;102234;-59
2023/06/29 06:07:32;;;;;;;6.90;3.10;;;;;;;17.74;100.00;96375.66;5010886;28;102708;-59
2023/06/29 06:09:59;;;;;;;3.90;3.30;;;;;;;17.20;100.00;96368.19;5008778;28;105763;-59
2023/06/29 06:12:26;;;;;;;7.70;3.40;;;;;;;17.03;100.00;96373.28;5009364;28;101932;-59
2023/06/29 06:14:53;;;;;;;2.83;2.43;;;;;;;17.85;100.00;96383.28;5009245;28;103997;-59
2023/06/29 06:17:22;;;;;;;3.20;3.00;;;;;;;17.65;100.00;96377.47;5011972;28;104943;-59
2023/06/29 06:19:49;;;;;;;3.37;3.07;;;;;;;17.81;100.00;96381.44;5009065;28;105005;-59
2023/06/29 06:22:15;;;;;;;3.47;3.17;;;;;;;17.88;100.00;96381.88;5008411;28;103780;-59
2023/06/29 06:24:42;;;;;;;5.13;3.33;;;;;;;17.88;100.00;96382.66;5009139;28;101932;-59
2023/06/29 06:27:12;;;;;;;4.20;3.00;;;;;;;17.83;100.00;96374.69;5009064;28;104597;-59
2023/06/29 06:29:39;;;;;;;4.67;3.00;;;;;;;17.90;100.00;96374.31;5008602;28;105232;-59
2023/06/29 06:32:06;;;;;;;3.20;2.90;;;;;;;18.20;100.00;96377.22;5008966;28;101934;-59
2023/06/29 06:34:34;;;;;;;3.60;2.80;;;;;;;18.35;100.00;96371.59;5009099;28;103659;-59
2023/06/29 06:37:01;;;;;;;5.77;2.87;;;;;;;18.69;100.00;96379.25;5008138;28;105367;-59
2023/06/29 06:39:32;;;;;;;2.93;2.67;;;;;;;18.90;100.00;96366.94;5012496;28;101924;-59
2023/06/29 06:41:59;;;;;;;3.07;2.20;;;;;;;19.16;100.00;96370.66;5008182;28;106028;-59
2023/06/29 06:44:25;;;;;;;2.93;2.63;;;;;;;19.55;100.00;96362.72;5008818;28;102092;-59
2023/06/29 06:46:52;;;;;;;3.17;2.80;;;;;;;19.08;100.00;96369.47;5008662;28;105070;-59
2023/06/29 06:49:19;;;;;;;4.57;2.40;;;;;;;19.25;100.00;96368.88;5008099;28;105367;-59
2023/06/29 06:51:47;;;;;;;3.33;2.90;;;;;;;18.43;100.00;96362.81;5008690;28;102110;-59
2023/06/29 06:54:14;;;;;;;2.77;2.47;;;;;;;18.38;100.00;96360.25;5008810;28;105113;-59
2023/06/29 06:56:41;;;;;;;3.13;2.77;;;;;;;18.89;100.00;96359.94;5008166;28;105337;-57
2023/06/29 06:59:08;;;;;;;2.97;2.50;;;;;;;18.99;100.00;96349.75;5003589;28;102490;-57
2023/06/29 07:01:40;;;;;;;5.47;2.40;;;;;;;19.54;100.00;96351.16;5006729;28;105198;-58
2023/06/29 07:04:07;;;;;;;2.50;2.30;;;;;;;20.10;100.00;96358.66;5016350;28;103552;-60
2023/06/29 07:06:34;;;;;;;3.20;2.90;;;;;;;20.18;100.00;96347.91;5000774;28;103778;-59
2023/06/29 07:09:03;;;;;;;3.53;2.40;;;;;;;20.09;100.00;96340.84;5028230;28;104074;-59
2023/06/29 07:11:30;;;;;;;4.10;2.70;;;;;;;20.30;100.00;96345.41;5003549;28;103357;-59
2023/06/29 07:13:56;;;;;;;4.17;2.60;;;;;;;20.00;100.00;96338.06;5022412;28;105304;-59
2023/06/29 07:16:25;;;;;;;13.47;3.23;;;;;;;19.95;100.00;96350.94;5027850;28;105892;-59
2023/06/29 07:19:05;;;;;;;4.17;2.70;;;;;;;20.02;100.00;96343.97;5002254;28;101920;-62
2023/06/29 07:21:32;;;;;;;5.03;2.57;;;;;;;20.47;100.00;96353.56;5005872;28;102952;-59
2023/06/29 07:24:00;;;;;;;4.07;2.40;;;;;;;20.93;100.00;96344.94;5030759;28;103220;-59
2023/06/29 07:26:28;;;;;;;2.97;2.17;;;;;;;21.15;100.00;96350.19;5024979;28;104865;-59
2023/06/29 07:28:55;;;;;;;3.97;2.57;;;;;;;21.19;100.00;96340.34;5008512;28;105621;-59
2023/06/29 07:31:26;;;;;;;3.03;2.37;;;;;;;21.26;100.00;96337.94;5010581;28;101980;-59
2023/06/29 07:33:53;;;;;;;6.17;2.27;;;;;;;21.37;100.00;96340.00;5009078;28;104072;-59
2023/06/29 07:36:21;;;;;;;4.03;2.23;;;;;;;21.74;100.00;96336.63;5008308;28;103897;-59
2023/06/29 07:38:48;;;;;;;4.17;2.60;;;;;;;21.50;100.00;96335.53;5014275;28;101899;-59
2023/06/29 07:41:15;;;;;;;2.90;2.10;;;;;;;20.73;100.00;96329.28;5028675;28;104997;-59
2023/06/29 07:43:48;;;;;;;5.67;2.43;;;;;;;20.65;100.00;96324.69;5031656;28;105304;-59
2023/06/29 07:46:15;;;;;;;4.27;2.43;;;;;;;20.41;100.00;96321.59;5029219;28;104846;-59
2023/06/29 07:48:42;;;;;;;4.93;2.70;;;;;;;21.02;100.00;96310.56;5028207;28;105465;-59
2023/06/29 07:51:09;;;;;;;3.33;2.00;;;;;;;21.80;100.00;96319.09;5028867;28;101991;-59
2023/06/29 07:53:36;;;;;;;3.87;2.10;;;;;;;22.40;100.00;96324.31;5028965;28;105305;-59
2023/06/29 07:56:03;;;;;;;2.03;1.63;;;;;;;22.74;100.00;96327.66;5028143;28;103834;-59
2023/06/29 07:58:31;;;;;;;2.80;2.40;;;;;;;22.93;100.00;96317.16;5000763;28;101862;-59
2023/06/29 08:00:59;;;;;;;2.27;2.03;;;;;;;23.02;100.00;96317.06;5001008;28;103641;-59
2023/06/29 08:03:28;;;;;;;2.97;2.03;;;;;;;23.31;100.00;96317.03;5001083;28;103789;-59
2023/06/29 08:05:54;;;;;;;4.53;2.00;;;;;;;23.01;100.00;96326.34;5009856;28;102034;-59
2023/06/29 08:08:21;;;;;;;5.03;1.60;;;;;;;23.33;100.00;96314.78;4988574;28;103922;-59
2023/06/29 08:10:49;;;;;;;1.83;1.70;;;;;;;23.76;100.00;96309.75;4992839;28;102169;-59
2023/06/29 08:13:16;;;;;;;3.07;1.40;;;;;;;23.96;91.84;96309.69;5002318;28;105280;-59
2023/06/29 08:15:42;;;;;;;2.33;1.60;;;;;;;24.07;95.18;96310.84;5008239;28;105421;-59
2023/06/29 08:18:11;;;;;;;3.73;1.80;;;;;;;24.22;92.64;96307.47;4991400;28;102011;-59
2023/06/29 08:20:38;;;;;;;3.53;1.60;;;;;;;24.22;91.57;96306.66;4992006;28;104065;-59
2023/06/29 08:23:05;;;;;;;1.80;1.70;;;;;;;24.19;78.76;96300.00;4991315;28;105336;-59
2023/06/29 08:25:32;;;;;;;4.73;1.90;;;;;;;24.45;75.83;96297.75;4991884;28;101936;-59
2023/06/29 08:27:59;;;;;;;1.50;1.40;;;;;;;24.43;74.50;96289.13;4995084;28;103627;-59
2023/06/29 08:30:26;;;;;;;4.17;1.43;;;;;;;23.49;86.10;96288.63;5006745;28;101873;-59
2023/06/29 08:32:53;;;;;;;4.90;1.80;;;;;;;23.99;87.91;96294.66;5031830;28;104808;-59
2023/06/29 08:35:21;;;;;;;2.27;1.50;;;;;;;24.52;76.75;96287.06;5031276;28;103751;-59
2023/06/29 08:37:48;;;;;;;2.47;1.50;;;;;;;24.74;72.72;96280.41;5030875;28;102007;-59
2023/06/29 08:40:19;;;;;;;2.03;1.50;;;;;;;24.91;62.95;96274.72;5009629;28;105198;-59
2023/06/29 08:42:46;;;;;;;2.10;1.50;;;;;;;25.36;67.14;96280.72;5010750;28;105706;-59
2023/06/29 08:45:13;;;;;;;2.83;1.50;;;;;;;25.57;72.78;96282.09;5011523;28;101946;-59
2023/06/29 08:47:43;;;;;;;2.40;1.50;;;;;;;25.82;63.07;96277.31;5004754;28;104943;-59
2023/06/29 08:50:11;;;;;;;1.57;1.30;;;;;;;25.95;57.07;96278.84;5007082;28;103910;-59
2023/06/29 08:52:41;;;;;;;1.83;1.50;;;;;;;25.89;55.54;96272.03;4991541;28;104287;-59
2023/06/29 08:55:09;;;;;;;2.83;1.43;;;;;;;24.87;48.69;96266.44;5009155;28;105023;-59
2023/06/29 08:57:37;;;;;;;1.53;1.30;;;;;;;25.29;56.47;96267.69;5008843;28;102231;-59
2023/06/29 09:00:05;;;;;;;1.50;1.40;;;;;;;25.95;52.89;96274.19;5002163;28;103964;-59
2023/06/29 09:02:33;;;;;;;1.73;1.60;;;;;;;25.87;48.35;96260.69;4998753;28;105367;-59
2023/06/29 09:05:00;;;;;;;2.17;1.40;;;;;;;25.59;50.15;96259.94;5009617;28;101876;-59
2023/06/29 09:07:27;;;;;;;3.47;1.73;;;;;;;25.82;50.12;96259.00;5010570;28;105097;-59
2023/06/29 09:09:55;;;;;;;2.30;1.27;;;;;;;25.92;50.01;96257.72;5009175;28;105453;-59
2023/06/29 09:12:22;;;;;;;1.63;1.40;;;;;;;26.34;52.60;96256.06;4997667;28;102365;-59
2023/06/29 09:14:49;;;;;;;1.70;1.40;;;;;;;26.48;49.63;96253.66;4990874;28;103925;-59
2023/06/29 09:17:18;;;;;;;2.60;1.30;;;;;;;26.36;43.71;96256.47;4991008;28;101947;-59
2023/06/29 09:19:51;;;;;;;1.40;1.27;;;;;;;25.98;44.05;96246.22;4994215;28;105301;-59
2023/06/29 09:22:21;;;;;;;1.90;1.67;;;;;;;25.54;44.72;96236.47;5008462;28;104969;-59
2023/06/29 09:24:48;;;;;;;1.50;1.40;;;;;;;26.07;47.92;96238.66;5008853;28;102057;-59
2023/06/29 09:27:17;;;;;;;2.20;1.40;;;;;;;26.35;46.14;96235.81;5010844;28;105734;-59
2023/06/29 09:29:50;;;;;;;1.13;1.13;;;;;;;27.04;45.20;96238.56;5009619;28;105434;-59
2023/06/29 09:32:17;;;;;;;1.87;1.23;;;;;;;27.17;44.99;96237.28;5008827;28;101910;-59
2023/06/29 09:34:46;;;;;;;1.83;1.57;;;;;;;26.29;43.65;96223.59;5011607;28;105988;-59
2023/06/29 09:37:15;;;;;;;1.50;1.40;;;;;;;26.80;45.56;96225.19;5000298;28;101715;-59
2023/06/29 09:39:50;;;;;;;2.57;1.37;;;;;;;27.08;42.11;96223.84;4993565;28;104960;-59
2023/06/29 09:42:20;;;;;;;1.83;1.43;;;;;;;27.34;43.83;96215.81;5009623;28;102909;-59
2023/06/29 09:44:47;;;;;;;2.33;1.27;;;;;;;27.91;45.35;96221.19;5010563;28;101853;-59
2023/06/29 09:47:13;;;;;;;1.37;1.27;;;;;;;28.02;43.49;96215.91;5002301;28;105027;-59
2023/06/29 09:49:48;;;;;;;3.60;1.40;;;;;;;27.84;41.44;96220.28;5008224;28;103953;-59
2023/06/29 09:52:16;;;;;;;1.45;1.17;;;;;;;27.51;41.59;96209.13;5010271;28;101933;-59
2023/06/29 09:54:43;;;;;;;2.50;1.20;;;;;;;27.69;39.20;96218.41;5013236;28;105309;-59
2023/06/29 09:57:11;;;;;;;1.60;1.47;;;;;;;28.15;42.36;96209.06;5009560;28;102214;-59
2023/06/29 09:59:41;;;;;;;1.50;1.40;;;;;;;27.97;42.16;96206.06;5007680;28;105573;-59
2023/06/29 10:02:08;;;;;;;3.63;1.90;;;;;;;27.92;41.01;96198.16;4990503;28;105416;-59
2023/06/29 10:04:35;;;;;;;1.45;1.30;;;;;;;28.40;39.91;96202.84;4992855;28;102052;-59
2023/06/29 10:07:07;;;;;;;1.30;1.20;;;;;;;27.85;36.99;96198.03;5011478;28;102948;-59
2023/06/29 10:09:37;;;;;;;1.23;1.08;;;;;;;28.11;38.99;96195.34;5007972;28;105546;-59
2023/06/29 10:12:08;;;;;;;1.55;1.38;;;;;;;28.04;39.16;96188.97;5003344;28;101929;-59
2023/06/29 10:14:37;;;;;;;2.38;1.35;;;;;;;27.99;38.38;96192.00;5022465;28;102451;-59
2023/06/29 10:17:09;;;;;;;2.17;1.58;;;;;;;28.46;39.34;96189.66;5031939;28;102658;-59
2023/06/29 10:19:39;;;;;;;1.38;1.20;;;;;;;28.93;38.94;96176.22;5011458;28;102373;-59
2023/06/29 10:22:08;;;;;;;1.92;1.30;;;;;;;28.89;37.24;96184.38;5010789;28;103040;-59
2023/06/29 10:24:40;;;;;;;1.77;1.30;;;;;;;28.69;36.12;96187.63;5010262;28;101898;-59
2023/06/29 10:27:09;;;;;;;1.42;1.23;;;;;;;28.61;37.13;96180.50;5009993;28;103741;-59
2023/06/29 10:29:46;;;;;;;2.53;1.30;;;;;;;28.84;34.45;96178.44;5014632;28;104998;-59
2023/06/29 10:32:32;;;;;;;2.85;1.23;;;;;;;27.76;33.45;96175.59;5014973;28;102145;-59
2023/06/29 10:35:08;;;;;;;1.23;1.13;;;;;;;28.56;35.72;96172.59;4999075;28;105634;-60
2023/06/29 10:37:37;;;;;;;1.35;1.20;;;;;;;29.09;34.72;96171.38;5009083;28;105815;-60
2023/06/29 10:40:13;;;;;;;2.88;1.30;;;;;;;29.27;35.33;96169.59;5012914;28;101871;-59
2023/06/29 10:42:54;;;;;;;1.77;1.13;;;;;;;29.73;35.93;96170.88;5009034;28;104026;-59
2023/06/29 10:45:39;;;;;;;1.73;1.40;;;;;;;29.74;33.89;96161.50;5009763;28;101934;-59
2023/06/29 10:48:10;;;;;;;1.20;1.10;;;;;;;29.94;35.19;96168.31;5009226;28;104865;-59
2023/06/29 10:50:42;;;;;;;1.80;1.58;;;;;;;29.99;34.82;96167.97;5008403;28;106295;-59
2023/06/29 10:53:11;;;;;;;2.10;1.30;;;;;;;29.77;34.04;96158.00;5007891;28;102008;-59
2023/06/29 10:55:44;;;;;;;2.05;1.30;;;;;;;28.68;34.10;96155.94;5009552;28;105898;-59
2023/06/29 10:58:37;;;;;;;1.88;1.30;;;;;;;28.25;35.15;96151.81;5006998;28;104309;-59
2023/06/29 11:01:05;;;;;;;4.60;1.42;;;;;;;29.09;37.71;96150.22;5005223;28;101739;-58
2023/06/29 11:03:34;;;;;;;2.00;1.20;;;;;;;30.04;35.03;96151.16;5013798;28;102395;-59
2023/06/29 11:06:01;;;;;;;1.35;1.20;;;;;;;29.95;35.14;96147.94;4995441;28;101967;-59
2023/06/29 11:08:28;;;;;;;1.30;1.20;;;;;;;30.39;33.62;96140.44;5010369;28;102942;-59
2023/06/29 11:10:55;;;;;;;1.52;1.30;;;;;;;30.40;35.41;96144.81;5010175;28;102834;-59
2023/06/29 11:13:22;;;;;;;1.38;1.23;;;;;;;30.81;34.57;96137.97;5009210;28;101877;-59
2023/06/29 11:15:54;;;;;;;1.65;1.38;;;;;;;30.16;31.76;96137.19;5007543;28;105632;-59
2023/06/29 11:18:21;;;;;;;1.20;1.20;;;;;;;29.35;32.72;96133.69;4992398;28;105335;-59
2023/06/29 11:20:50;;;;;;;2.03;1.40;;;;;;;28.75;34.05;96131.41;4991981;28;102086;-59
2023/06/29 11:23:17;;;;;;;1.90;1.20;;;;;;;29.46;33.54;96129.09;4990085;28;105086;-59
2023/06/29 11:25:44;;;;;;;3.05;1.42;;;;;;;29.42;35.09;96127.50;4992145;28;105400;-59